Accueil
METAR-TAF:

METAR-TAF

Aéroports :

Aérodrome de Pemba

Pemba, Mozambique

latitude: 12-59S, longitude: 040-32E, altitude: 101 m

Observation

Le bulletin a été fait il y a 1 heure et 2 minutes, à 09:00 UTC
Vent 14 kt de sud, variant entre sud-est et sud
Température 29°C
Humidité 66%
Pression 1017 hPa
Visibilité 10 km ou plus
Nuages épars à une hauteur de 2000 ft

METAR: FQPB 300900Z 17014KT 130V190 9999 SCT020 29/22 Q1017

Heure: 12:02 (10:02 UTC)

Prévision

Le bulletin a été fait il y a 6 heures et 2 minutes, à 04:00 UTC
Prévision valable du 30 à 06 UTC au 31 à 06 UTC
Vent 10 kt de ouest/sud-ouest
Visibilité 10 km ou plus
Nuages épars à une hauteur de 2000 ft
Evoluant progressivement
du 30 à 12 UTC au 30 à 14 UTC
Vent 8 kt de sud/sud-est
Evoluant progressivement
du 31 à 00 UTC au 31 à 02 UTC
Vent 5 kt de sud-ouest

TAF: FQPB 300400Z 3006/3106 24010KT 9999 SCT020 TX30/3013Z TN21/3103Z BECMG 3012/3014 15008KT BECMG 3100/3102 22005KT

Observations et prévisions météorologiques de plus de 4000 aéroports (messages METAR et TAF).

Les stations disponibles sont représentées par des disques jaunes et rouges sur la carte.

Passer la souris dessus pour voir le nom de la station.

Cliquer dessus pour voir les observations et prévisions météorologiques.

Pour changer de carte: cliquez sur les boutons verts avec une croix noire pour zoomer, sur le bouton vert avec un tiret pour effectuer un zoom arrière, ou sur les flèches vertes pour les cartes adjacentes.


METAR-TAF: